Time;durP1;ratioP1;P1;durP2;ratioP2;P2;SDS_P1;SDS_P2;PMS_P1;PMS_P2;Temp;Humidity;BMP_temperature;BMP_pressure;BME280_temperature;BME280_humidity;BME280_pressure;Samples;Min_cycle;Max_cycle;Signal;HPM_P1;HPM_P2
2022/01/26 00:06:06;;;;;;;45.77;19.23;;;;;;;;;;4988672;28;20191;-79
2022/01/26 00:08:33;;;;;;;38.27;18.00;;;;;;;;;;4994473;28;20719;-79
2022/01/26 00:11:00;;;;;;;39.67;18.67;;;;;;;;;;4992352;28;20288;-79
2022/01/26 00:13:26;;;;;;;40.93;19.33;;;;;;;;;;4989048;28;20176;-79
2022/01/26 00:15:53;;;;;;;44.50;19.57;;;;;;;;;;4992179;28;20191;-79
2022/01/26 00:18:22;;;;;;;43.67;19.43;;;;;;;;;;4987779;28;20691;-79
2022/01/26 00:20:55;;;;;;;45.47;19.70;;;;;;;;;;4993805;28;20207;-79
2022/01/26 00:32:56;;;;;;;42.57;18.90;;;;;;;;;;4973385;28;20222;-79
2022/01/26 00:38:34;;;;;;;44.37;19.20;;;;;;;;;;4989598;28;20219;-79
2022/01/26 00:39:52;;;;;;;41.70;18.00;;;;;;;;;;4972117;28;20180;-81
2022/01/26 00:42:18;;;;;;;43.67;20.30;;;;;;;;;;4987794;28;20184;-80
2022/01/26 00:44:48;;;;;;;42.10;19.70;;;;;;;;;;4990596;28;20230;-80
2022/01/26 00:47:15;;;;;;;48.00;20.70;;;;;;;;;;4986370;28;20440;-80
2022/01/26 00:49:41;;;;;;;55.67;21.00;;;;;;;;;;4967606;28;21608;-80
2022/01/26 00:52:12;;;;;;;47.77;21.03;;;;;;;;;;4973915;28;20203;-80
2022/01/26 00:54:39;;;;;;;51.97;22.17;;;;;;;;;;5009953;28;20191;-80
2022/01/26 00:57:05;;;;;;;41.60;19.20;;;;;;;;;;5003396;28;20207;-80
2022/01/26 00:59:32;;;;;;;52.93;20.97;;;;;;;;;;4995991;28;20683;-81
2022/01/26 01:01:58;;;;;;;41.93;19.03;;;;;;;;;;4976926;28;20226;-81
2022/01/26 01:04:24;;;;;;;50.83;20.57;;;;;;;;;;4990770;28;20201;-82
2022/01/26 01:06:57;;;;;;;41.80;18.20;;;;;;;;;;4987484;28;20218;-80
2022/01/26 01:09:24;;;;;;;43.70;18.97;;;;;;;;;;4990670;28;20541;-79
2022/01/26 01:11:56;;;;;;;38.83;17.97;;;;;;;;;;4991476;28;20200;-80
2022/01/26 01:14:23;;;;;;;40.83;18.50;;;;;;;;;;4992788;28;20259;-79
2022/01/26 01:16:49;;;;;;;40.77;18.47;;;;;;;;;;4991021;28;20271;-79
2022/01/26 01:19:30;;;;;;;42.67;19.37;;;;;;;;;;4989796;28;20203;-79
2022/01/26 01:29:58;;;;;;;43.90;18.53;;;;;;;;;;4988416;28;20211;-79
2022/01/26 01:32:37;;;;;;;42.13;17.93;;;;;;;;;;4990732;28;20194;-81
2022/01/26 01:35:07;;;;;;;47.27;17.90;;;;;;;;;;4993427;28;20195;-80
2022/01/26 01:37:34;;;;;;;40.40;17.70;;;;;;;;;;4990825;28;20648;-82
2022/01/26 01:40:02;;;;;;;46.27;18.30;;;;;;;;;;4974021;28;20184;-80
2022/01/26 01:42:30;;;;;;;41.30;17.90;;;;;;;;;;4999255;28;20194;-80
2022/01/26 01:44:56;;;;;;;43.73;17.20;;;;;;;;;;4996152;28;20296;-80
2022/01/26 01:47:22;;;;;;;46.20;17.53;;;;;;;;;;4989093;28;20188;-81
2022/01/26 01:49:49;;;;;;;38.57;16.97;;;;;;;;;;4993682;28;20661;-80
2022/01/26 01:52:16;;;;;;;47.60;18.70;;;;;;;;;;4989003;28;20266;-80
2022/01/26 01:54:49;;;;;;;38.70;17.33;;;;;;;;;;4998295;28;20288;-80
2022/01/26 01:57:23;;;;;;;43.10;17.57;;;;;;;;;;5004207;28;20186;-79
2022/01/26 01:59:50;;;;;;;40.17;16.43;;;;;;;;;;4992050;28;20176;-80
2022/01/26 04:06:02;;;;;;;33.87;14.47;;;;;;;;;;4948921;28;20718;-76
2022/01/26 04:08:31;;;;;;;35.80;15.40;;;;;;;;;;4954691;28;20210;-75
2022/01/26 04:13:26;;;;;;;32.43;15.13;;;;;;;;;;4949195;28;20202;-75
2022/01/26 04:15:52;;;;;;;35.13;16.50;;;;;;;;;;4952187;28;20240;-76
2022/01/26 04:18:24;;;;;;;34.33;16.00;;;;;;;;;;4952197;28;20221;-76
2022/01/26 04:20:54;;;;;;;39.77;16.93;;;;;;;;;;4951299;28;20209;-76
2022/01/26 04:23:37;;;;;;;34.30;15.27;;;;;;;;;;4966813;28;20292;-76
2022/01/26 04:26:04;;;;;;;41.10;16.03;;;;;;;;;;4951793;29;20652;-76
2022/01/26 04:28:38;;;;;;;35.90;15.87;;;;;;;;;;4951202;28;20220;-76
2022/01/26 04:31:04;;;;;;;35.53;16.33;;;;;;;;;;4960405;28;20223;-77
2022/01/26 04:33:33;;;;;;;37.13;16.17;;;;;;;;;;4933686;29;20249;-77
2022/01/26 04:35:59;;;;;;;34.20;13.63;;;;;;;;;;4952902;29;20219;-75
2022/01/26 04:38:38;;;;;;;35.60;15.53;;;;;;;;;;4952245;28;20188;-74
2022/01/26 04:41:28;;;;;;;29.23;13.90;;;;;;;;;;4965215;28;20193;-74
2022/01/26 04:44:00;;;;;;;32.00;14.63;;;;;;;;;;4951390;28;20734;-74
2022/01/26 04:46:26;;;;;;;30.13;14.73;;;;;;;;;;4952508;28;20727;-74
2022/01/26 04:48:53;;;;;;;35.37;15.10;;;;;;;;;;4951178;29;20213;-77
2022/01/26 04:51:19;;;;;;;41.27;17.27;;;;;;;;;;4951653;28;20197;-76
2022/01/26 04:53:45;;;;;;;36.27;16.27;;;;;;;;;;4919654;29;20241;-76
2022/01/26 04:56:13;;;;;;;39.70;16.17;;;;;;;;;;4959510;28;20193;-76
2022/01/26 04:58:40;;;;;;;35.53;15.13;;;;;;;;;;4951546;28;20249;-76
2022/01/26 05:01:06;;;;;;;40.17;16.50;;;;;;;;;;4951094;28;20711;-76
2022/01/26 05:03:32;;;;;;;33.27;15.23;;;;;;;;;;4951240;28;20204;-77
2022/01/26 05:05:58;;;;;;;39.73;16.27;;;;;;;;;;4951746;28;20268;-77
2022/01/26 05:08:24;;;;;;;38.37;16.80;;;;;;;;;;4950406;28;20269;-76
2022/01/26 05:10:51;;;;;;;42.00;17.93;;;;;;;;;;4934933;28;20252;-76
2022/01/26 05:13:17;;;;;;;38.13;16.00;;;;;;;;;;4930996;29;20292;-76
2022/01/26 05:15:44;;;;;;;36.80;16.83;;;;;;;;;;4953650;28;20192;-76
2022/01/26 05:18:10;;;;;;;38.03;17.20;;;;;;;;;;4950639;29;20186;-76
2022/01/26 05:20:36;;;;;;;34.77;16.13;;;;;;;;;;4951867;28;20201;-74
2022/01/26 05:23:03;;;;;;;38.57;16.03;;;;;;;;;;4948366;28;20716;-76
2022/01/26 05:25:29;;;;;;;37.70;17.10;;;;;;;;;;4919467;29;20597;-76
2022/01/26 05:27:55;;;;;;;36.27;17.53;;;;;;;;;;4946073;28;20204;-77
2022/01/26 05:30:21;;;;;;;46.47;19.17;;;;;;;;;;4953487;28;20219;-77
2022/01/26 05:32:48;;;;;;;37.93;17.47;;;;;;;;;;4918288;29;20560;-77
2022/01/26 05:35:14;;;;;;;39.03;16.97;;;;;;;;;;4952905;28;20220;-76
2022/01/26 05:37:40;;;;;;;33.50;16.20;;;;;;;;;;4954497;28;20199;-77
2022/01/26 05:40:07;;;;;;;34.63;15.90;;;;;;;;;;4956119;28;20216;-77
2022/01/26 05:42:35;;;;;;;35.97;16.27;;;;;;;;;;4953930;28;20217;-77
2022/01/26 05:45:05;;;;;;;39.90;18.07;;;;;;;;;;4948789;28;20743;-76
2022/01/26 05:47:33;;;;;;;40.17;17.00;;;;;;;;;;4955852;28;20720;-76
2022/01/26 05:49:59;;;;;;;36.17;16.30;;;;;;;;;;4953673;28;20564;-76
2022/01/26 05:52:26;;;;;;;37.17;16.20;;;;;;;;;;4936996;29;20208;-76
2022/01/26 05:54:52;;;;;;;41.17;18.07;;;;;;;;;;4949347;28;20216;-76
2022/01/26 05:57:18;;;;;;;39.93;17.37;;;;;;;;;;4946007;28;20219;-76
2022/01/26 05:59:44;;;;;;;44.93;18.10;;;;;;;;;;4969798;28;20196;-76
2022/01/26 06:02:10;;;;;;;38.77;16.60;;;;;;;;;;4945943;29;20194;-76
2022/01/26 06:04:36;;;;;;;44.17;18.30;;;;;;;;;;4951282;29;20232;-76
2022/01/26 06:07:03;;;;;;;39.47;17.37;;;;;;;;;;4953921;28;20698;-76
2022/01/26 06:09:29;;;;;;;41.07;17.27;;;;;;;;;;4954853;28;20205;-76
2022/01/26 06:11:55;;;;;;;41.63;17.87;;;;;;;;;;4947709;28;20189;-77
2022/01/26 06:14:22;;;;;;;38.93;17.73;;;;;;;;;;4953845;28;20207;-76
2022/01/26 06:16:48;;;;;;;40.83;17.57;;;;;;;;;;4954460;28;20192;-76
2022/01/26 06:19:14;;;;;;;37.30;16.30;;;;;;;;;;4954157;28;20225;-77
2022/01/26 06:21:40;;;;;;;41.77;17.37;;;;;;;;;;4952612;28;20209;-77
2022/01/26 06:24:07;;;;;;;39.57;16.90;;;;;;;;;;4957616;28;20212;-74
2022/01/26 06:26:33;;;;;;;42.37;17.70;;;;;;;;;;4938622;29;20197;-75
2022/01/26 06:28:59;;;;;;;41.77;17.37;;;;;;;;;;4940065;29;20608;-75
2022/01/26 06:31:27;;;;;;;45.73;18.93;;;;;;;;;;4951761;29;20681;-76
2022/01/26 06:33:54;;;;;;;43.97;17.73;;;;;;;;;;4955553;28;20579;-76
2022/01/26 06:36:20;;;;;;;42.00;18.20;;;;;;;;;;4924229;29;20188;-74
2022/01/26 06:38:48;;;;;;;44.10;17.93;;;;;;;;;;4956213;29;20189;-75
2022/01/26 06:41:23;;;;;;;45.83;19.03;;;;;;;;;;4953965;29;20213;-74
2022/01/26 06:43:53;;;;;;;40.23;17.23;;;;;;;;;;4949700;28;20204;-75
2022/01/26 06:46:30;;;;;;;46.03;18.97;;;;;;;;;;4919905;29;20532;-73
2022/01/26 06:51:23;;;;;;;39.77;16.70;;;;;;;;;;4952510;29;20173;-77
2022/01/26 06:53:49;;;;;;;39.23;16.67;;;;;;;;;;4953994;29;20252;-77
2022/01/26 06:56:15;;;;;;;36.33;16.87;;;;;;;;;;4953035;28;20193;-76
2022/01/26 06:58:41;;;;;;;36.30;15.83;;;;;;;;;;4954906;28;20279;-74
2022/01/26 07:01:07;;;;;;;35.97;15.60;;;;;;;;;;4953141;28;20190;-77
2022/01/26 07:03:33;;;;;;;33.83;15.77;;;;;;;;;;4953301;29;20209;-79
2022/01/26 07:06:00;;;;;;;35.43;16.33;;;;;;;;;;4950838;28;20649;-77
2022/01/26 07:08:26;;;;;;;32.70;16.07;;;;;;;;;;4967176;28;20209;-77
2022/01/26 07:10:53;;;;;;;36.63;16.63;;;;;;;;;;4949660;28;20189;-79
2022/01/26 07:13:20;;;;;;;41.40;16.77;;;;;;;;;;4925177;29;20304;-78
2022/01/26 07:23:50;;;;;;;31.63;15.33;;;;;;;;;;4951933;28;20221;-78
2022/01/26 07:26:16;;;;;;;28.57;15.23;;;;;;;;;;4954745;28;20276;-79
2022/01/26 07:28:42;;;;;;;38.23;16.40;;;;;;;;;;4952756;29;20221;-78
2022/01/26 07:31:09;;;;;;;33.47;15.43;;;;;;;;;;4964566;28;20186;-77
2022/01/26 07:33:37;;;;;;;39.27;17.00;;;;;;;;;;4949017;28;20202;-77
2022/01/26 07:36:03;;;;;;;37.87;16.20;;;;;;;;;;4954210;28;20195;-78
2022/01/26 07:38:31;;;;;;;39.47;17.33;;;;;;;;;;4956197;28;20185;-79
2022/01/26 07:40:57;;;;;;;38.47;17.80;;;;;;;;;;4950824;29;20216;-77
2022/01/26 07:43:24;;;;;;;49.27;19.87;;;;;;;;;;4952863;28;20272;-77
2022/01/26 07:45:50;;;;;;;38.47;17.60;;;;;;;;;;4952884;28;20588;-78
2022/01/26 07:48:17;;;;;;;36.33;17.67;;;;;;;;;;4955568;28;20284;-78
2022/01/26 07:50:43;;;;;;;43.57;17.63;;;;;;;;;;4953614;29;20209;-78
2022/01/26 07:53:14;;;;;;;32.20;15.97;;;;;;;;;;4952707;28;20336;-77
2022/01/26 07:55:40;;;;;;;32.43;15.93;;;;;;;;;;4951023;28;20209;-78
2022/01/26 07:58:09;;;;;;;31.03;15.60;;;;;;;;;;4952910;28;20724;-77
2022/01/26 08:00:35;;;;;;;29.10;14.37;;;;;;;;;;4951065;28;20185;-77
2022/01/26 08:03:01;;;;;;;24.17;12.50;;;;;;;;;;4959842;28;20204;-78
2022/01/26 08:05:27;;;;;;;22.57;12.73;;;;;;;;;;4958345;28;20208;-78
2022/01/26 08:07:54;;;;;;;22.77;13.23;;;;;;;;;;4955741;28;20192;-78
2022/01/26 08:10:20;;;;;;;19.77;11.80;;;;;;;;;;4958364;28;20240;-75
2022/01/26 08:12:48;;;;;;;21.83;12.17;;;;;;;;;;4962318;28;20569;-78
2022/01/26 08:15:14;;;;;;;24.93;12.30;;;;;;;;;;4963984;28;20180;-78
2022/01/26 08:17:41;;;;;;;18.93;11.27;;;;;;;;;;4960862;28;20215;-78
2022/01/26 08:20:08;;;;;;;19.00;11.07;;;;;;;;;;4958188;28;20203;-78
2022/01/26 08:22:35;;;;;;;19.03;10.83;;;;;;;;;;4947894;28;20199;-78
2022/01/26 08:25:01;;;;;;;16.97;10.60;;;;;;;;;;4954455;28;20576;-78
2022/01/26 08:27:32;;;;;;;16.93;11.10;;;;;;;;;;4954682;28;20195;-77
2022/01/26 08:30:06;;;;;;;20.17;10.90;;;;;;;;;;4954471;28;20284;-78
2022/01/26 08:32:32;;;;;;;18.03;10.93;;;;;;;;;;4965327;28;20694;-78
2022/01/26 08:34:59;;;;;;;21.57;12.40;;;;;;;;;;4954096;28;20275;-78
2022/01/26 08:37:26;;;;;;;19.60;11.10;;;;;;;;;;4952688;28;20246;-79
2022/01/26 08:39:52;;;;;;;17.90;10.00;;;;;;;;;;4955016;28;20221;-78
2022/01/26 08:42:18;;;;;;;16.73;9.53;;;;;;;;;;4954284;28;20669;-78
2022/01/26 08:44:44;;;;;;;14.90;10.27;;;;;;;;;;4951923;28;20271;-78
2022/01/26 08:47:10;;;;;;;17.53;9.57;;;;;;;;;;4951873;28;20181;-78
2022/01/26 08:49:36;;;;;;;17.80;10.40;;;;;;;;;;4951252;28;20263;-78
2022/01/26 08:52:03;;;;;;;18.23;9.90;;;;;;;;;;4952279;28;20193;-78
2022/01/26 08:54:29;;;;;;;19.67;11.27;;;;;;;;;;4956516;28;20204;-78
2022/01/26 08:56:55;;;;;;;17.03;10.33;;;;;;;;;;4956434;28;20196;-79
2022/01/26 08:59:22;;;;;;;15.67;10.13;;;;;;;;;;4957187;28;20193;-78
2022/01/26 09:01:49;;;;;;;15.27;9.10;;;;;;;;;;4953661;28;20197;-78
2022/01/26 09:04:15;;;;;;;18.10;10.03;;;;;;;;;;4957413;28;20718;-78
2022/01/26 09:07:00;;;;;;;15.63;10.17;;;;;;;;;;4954875;28;20208;-75
2022/01/26 09:09:30;;;;;;;18.20;9.77;;;;;;;;;;4955066;28;20275;-78
2022/01/26 09:11:59;;;;;;;14.40;9.67;;;;;;;;;;4958911;28;20209;-78
2022/01/26 09:14:28;;;;;;;16.17;10.13;;;;;;;;;;4958403;28;20343;-78
2022/01/26 09:16:54;;;;;;;15.53;9.47;;;;;;;;;;4942580;28;20800;-76
2022/01/26 09:21:51;;;;;;;16.73;10.07;;;;;;;;;;4958629;28;20193;-78
2022/01/26 09:24:17;;;;;;;16.77;10.13;;;;;;;;;;4962153;28;20208;-77
2022/01/26 09:26:43;;;;;;;17.83;10.57;;;;;;;;;;4958040;28;20185;-78
2022/01/26 09:29:09;;;;;;;15.80;9.93;;;;;;;;;;4957873;28;20582;-78
2022/01/26 09:31:36;;;;;;;17.73;10.70;;;;;;;;;;4959216;28;20664;-78
2022/01/26 09:34:02;;;;;;;14.87;10.07;;;;;;;;;;4960250;28;20197;-76
2022/01/26 09:36:30;;;;;;;16.17;10.27;;;;;;;;;;4956631;28;20189;-75
2022/01/26 09:38:57;;;;;;;15.40;9.73;;;;;;;;;;4965448;28;20189;-78
2022/01/26 09:41:23;;;;;;;21.80;12.23;;;;;;;;;;4958161;28;20319;-77
2022/01/26 09:43:49;;;;;;;21.73;12.57;;;;;;;;;;4957127;28;20215;-78
2022/01/26 09:46:16;;;;;;;16.07;10.20;;;;;;;;;;4959199;28;20184;-78
2022/01/26 09:48:43;;;;;;;16.60;10.33;;;;;;;;;;4958236;28;20208;-77
2022/01/26 09:51:11;;;;;;;16.03;10.17;;;;;;;;;;4959893;28;20195;-78
2022/01/26 09:53:37;;;;;;;18.03;11.20;;;;;;;;;;4958250;28;20212;-78
2022/01/26 09:56:03;;;;;;;16.77;10.90;;;;;;;;;;4954914;28;20869;-77
2022/01/26 09:58:29;;;;;;;16.13;10.93;;;;;;;;;;4958520;28;20192;-78
2022/01/26 10:00:59;;;;;;;20.80;11.83;;;;;;;;;;4960386;28;20184;-78
2022/01/26 10:03:35;;;;;;;19.23;11.57;;;;;;;;;;4959329;28;20256;-77
2022/01/26 10:06:02;;;;;;;18.67;11.43;;;;;;;;;;4958424;28;20276;-78
2022/01/26 10:19:01;;;;;;;19.47;11.90;;;;;;;;;;4956344;28;20631;-77
2022/01/26 10:21:28;;;;;;;19.87;11.97;;;;;;;;;;4956374;28;20551;-78
2022/01/26 10:23:55;;;;;;;18.57;11.50;;;;;;;;;;4956038;28;20596;-77
2022/01/26 10:26:21;;;;;;;18.73;12.10;;;;;;;;;;4952285;28;20197;-78
2022/01/26 10:28:48;;;;;;;18.87;12.47;;;;;;;;;;4959020;28;20688;-78
2022/01/26 10:31:21;;;;;;;22.17;14.00;;;;;;;;;;4955490;28;20180;-77
2022/01/26 10:34:02;;;;;;;24.23;14.70;;;;;;;;;;4964260;28;20205;-77
2022/01/26 10:36:35;;;;;;;25.77;15.53;;;;;;;;;;4957326;28;20675;-78
2022/01/26 10:39:09;;;;;;;25.93;15.43;;;;;;;;;;4958380;28;20196;-78
2022/01/26 10:41:37;;;;;;;25.73;15.33;;;;;;;;;;4954733;28;20272;-77
2022/01/26 10:44:03;;;;;;;25.83;16.03;;;;;;;;;;4954291;28;20327;-77
2022/01/26 10:46:36;;;;;;;24.57;15.77;;;;;;;;;;4956454;28;20193;-77
2022/01/26 10:51:54;;;;;;;23.10;14.30;;;;;;;;;;4955410;28;20188;-75
2022/01/26 10:57:01;;;;;;;20.90;12.87;;;;;;;;;;4957354;28;20199;-77
2022/01/26 10:59:27;;;;;;;19.67;12.87;;;;;;;;;;4952854;28;20197;-78
2022/01/26 11:01:53;;;;;;;22.77;13.20;;;;;;;;;;4959443;28;20211;-77
2022/01/26 11:04:20;;;;;;;20.43;12.53;;;;;;;;;;4936658;28;20201;-76
2022/01/26 11:06:51;;;;;;;20.53;12.40;;;;;;;;;;4957480;28;20244;-77
2022/01/26 11:09:20;;;;;;;18.83;11.63;;;;;;;;;;4959900;28;20272;-77
2022/01/26 11:11:46;;;;;;;23.23;12.53;;;;;;;;;;4963232;28;20641;-78
2022/01/26 11:14:22;;;;;;;18.80;11.90;;;;;;;;;;4960881;28;20594;-78
2022/01/26 11:16:53;;;;;;;18.70;12.40;;;;;;;;;;4959385;28;20180;-78
2022/01/26 11:19:20;;;;;;;17.73;11.40;;;;;;;;;;4957029;28;20259;-77
2022/01/26 11:21:47;;;;;;;19.07;11.80;;;;;;;;;;4959516;28;20185;-76
2022/01/26 11:24:19;;;;;;;18.20;11.80;;;;;;;;;;4953621;28;20216;-78
2022/01/26 11:26:46;;;;;;;16.20;10.60;;;;;;;;;;4957793;28;20212;-77
2022/01/26 11:29:32;;;;;;;20.03;13.00;;;;;;;;;;4957494;28;20603;-77
2022/01/26 11:32:02;;;;;;;22.10;12.80;;;;;;;;;;4959022;28;20558;-77
2022/01/26 11:34:29;;;;;;;20.43;11.93;;;;;;;;;;4976757;28;20239;-80
2022/01/26 11:36:58;;;;;;;19.53;12.43;;;;;;;;;;4960263;28;20193;-78
2022/01/26 11:42:30;;;;;;;21.27;13.37;;;;;;;;;;4961801;28;20188;-76
2022/01/26 11:45:10;;;;;;;20.77;12.73;;;;;;;;;;4958565;28;20276;-77
2022/01/26 11:47:38;;;;;;;20.57;12.07;;;;;;;;;;4957151;28;20223;-77
2022/01/26 11:50:08;;;;;;;19.57;12.63;;;;;;;;;;4958224;28;20212;-77
2022/01/26 11:52:38;;;;;;;19.40;12.43;;;;;;;;;;4954573;28;20264;-77
2022/01/26 11:55:31;;;;;;;19.87;12.93;;;;;;;;;;4954491;28;20229;-77
2022/01/26 11:58:07;;;;;;;19.23;11.50;;;;;;;;;;4955697;28;20340;-76
2022/01/26 12:01:08;;;;;;;19.80;12.37;;;;;;;;;;4952190;28;20247;-77
2022/01/26 12:03:31;;;;;;;20.70;12.03;;;;;;;;;;4957786;28;20213;-79
2022/01/26 12:05:59;;;;;;;21.27;12.00;;;;;;;;;;4951165;28;20189;-78
2022/01/26 12:08:28;;;;;;;18.10;11.47;;;;;;;;;;4948528;29;20248;-77
2022/01/26 12:10:54;;;;;;;19.90;11.90;;;;;;;;;;4951453;29;20188;-78
2022/01/26 12:13:24;;;;;;;17.17;10.40;;;;;;;;;;4947771;28;20197;-78
2022/01/26 12:16:24;;;;;;;19.43;10.70;;;;;;;;;;4954120;28;20197;-76
2022/01/26 12:19:21;;;;;;;16.27;9.83;;;;;;;;;;4957722;28;20224;-77
2022/01/26 12:38:43;;;;;;;18.57;11.17;;;;;;;;;;4949557;28;20692;-76
2022/01/26 12:41:28;;;;;;;19.73;11.17;;;;;;;;;;4947754;28;20185;-74
2022/01/26 12:43:56;;;;;;;19.20;12.00;;;;;;;;;;4964875;28;20212;-74
2022/01/26 12:46:27;;;;;;;17.73;11.27;;;;;;;;;;4952731;28;20196;-77
2022/01/26 12:48:54;;;;;;;20.80;11.63;;;;;;;;;;4954113;28;20220;-75
2022/01/26 12:51:21;;;;;;;20.50;11.80;;;;;;;;;;4943258;28;20200;-75
2022/01/26 12:53:54;;;;;;;18.73;11.73;;;;;;;;;;4952098;28;20208;-76
2022/01/26 12:56:20;;;;;;;18.17;11.30;;;;;;;;;;4949751;28;20612;-75
2022/01/26 12:58:47;;;;;;;17.40;11.50;;;;;;;;;;4945509;28;20279;-75
2022/01/26 13:01:17;;;;;;;16.90;10.93;;;;;;;;;;4945886;28;20582;-76
2022/01/26 13:03:44;;;;;;;21.13;12.33;;;;;;;;;;4952510;28;20233;-76
2022/01/26 13:06:13;;;;;;;19.03;11.77;;;;;;;;;;4947279;28;20193;-75
2022/01/26 13:08:40;;;;;;;19.63;11.63;;;;;;;;;;4955310;28;21096;-76
2022/01/26 13:11:06;;;;;;;17.10;11.20;;;;;;;;;;4937447;28;20196;-76
2022/01/26 13:13:35;;;;;;;19.70;12.03;;;;;;;;;;4960218;28;20212;-76
2022/01/26 13:16:14;;;;;;;19.17;11.63;;;;;;;;;;4940825;28;20185;-75
2022/01/26 13:24:38;;;;;;;20.20;12.17;;;;;;;;;;4956141;28;20223;-79
2022/01/26 13:29:45;;;;;;;18.77;12.23;;;;;;;;;;4945985;28;21939;-80
2022/01/26 13:34:55;;;;;;;18.37;10.67;;;;;;;;;;4944476;28;20219;-79
2022/01/26 13:37:46;;;;;;;17.07;11.10;;;;;;;;;;4951567;28;20181;-79
2022/01/26 13:48:35;;;;;;;14.27;9.57;;;;;;;;;;4952838;28;20201;-80
2022/01/26 13:51:20;;;;;;;16.53;10.07;;;;;;;;;;4956345;28;20203;-79
2022/01/26 13:56:57;;;;;;;18.60;10.63;;;;;;;;;;4938383;28;20664;-82
2022/01/26 13:59:34;;;;;;;15.60;10.40;;;;;;;;;;4953507;28;20198;-78
2022/01/26 14:02:00;;;;;;;14.93;9.57;;;;;;;;;;4948790;28;20268;-81
2022/01/26 14:04:26;;;;;;;14.17;9.90;;;;;;;;;;4950418;28;20296;-81
2022/01/26 14:06:53;;;;;;;15.70;9.63;;;;;;;;;;4933179;28;20205;-81
2022/01/26 14:09:19;;;;;;;15.10;9.90;;;;;;;;;;4939595;28;20284;-81
2022/01/26 14:11:48;;;;;;;12.50;8.47;;;;;;;;;;4947108;28;20276;-81
2022/01/26 14:14:21;;;;;;;14.27;9.30;;;;;;;;;;4947760;28;20209;-81
2022/01/26 14:16:57;;;;;;;14.30;9.33;;;;;;;;;;4950930;28;20407;-81
2022/01/26 14:19:28;;;;;;;15.33;9.83;;;;;;;;;;4948312;28;20196;-83
2022/01/26 14:25:13;;;;;;;16.40;10.10;;;;;;;;;;4949385;28;20350;-81
2022/01/26 14:27:46;;;;;;;16.20;9.53;;;;;;;;;;4949555;28;20279;-80
2022/01/26 15:11:12;;;;;;;18.07;11.27;;;;;;;;;;4969522;28;20743;-80
2022/01/26 15:30:15;;;;;;;23.90;13.17;;;;;;;;;;4956496;28;20668;-80
2022/01/26 15:35:00;;;;;;;23.43;12.90;;;;;;;;;;4951885;28;20609;-78
2022/01/26 16:07:11;;;;;;;24.00;13.03;;;;;;;;;;4945555;28;20205;-79
2022/01/26 17:26:36;;;;;;;21.10;11.67;;;;;;;;;;4953705;28;20189;-80
2022/01/26 18:38:46;;;;;;;25.30;15.70;;;;;;;;;;4954555;28;21060;-79
2022/01/26 18:49:33;;;;;;;25.57;15.20;;;;;;;;;;4951002;28;20279;-77
2022/01/26 18:52:00;;;;;;;25.90;14.13;;;;;;;;;;4947118;29;20620;-78
2022/01/26 18:54:33;;;;;;;27.43;14.90;;;;;;;;;;4952807;28;20236;-78
2022/01/26 18:57:00;;;;;;;26.13;15.33;;;;;;;;;;4951935;29;20188;-78
2022/01/26 18:59:27;;;;;;;22.53;13.57;;;;;;;;;;4935941;29;20193;-78
2022/01/26 19:01:55;;;;;;;27.50;15.10;;;;;;;;;;4952427;28;20189;-78
2022/01/26 19:04:27;;;;;;;26.37;15.13;;;;;;;;;;4950500;29;20208;-77
2022/01/26 19:06:54;;;;;;;25.57;14.67;;;;;;;;;;4951924;28;20212;-77
2022/01/26 19:09:24;;;;;;;28.40;15.50;;;;;;;;;;4952503;28;20193;-77
2022/01/26 19:11:50;;;;;;;26.53;15.67;;;;;;;;;;4951462;28;20169;-78
2022/01/26 19:14:16;;;;;;;24.50;14.63;;;;;;;;;;4951346;28;20279;-77
2022/01/26 19:16:49;;;;;;;29.40;17.23;;;;;;;;;;4954049;28;20189;-78
2022/01/26 19:24:52;;;;;;;27.87;16.40;;;;;;;;;;4950033;28;20630;-78
2022/01/26 19:27:26;;;;;;;27.10;16.57;;;;;;;;;;4935561;29;20549;-78
2022/01/26 19:30:55;;;;;;;28.93;16.40;;;;;;;;;;4935280;29;20221;-78
2022/01/26 19:46:25;;;;;;;31.47;16.97;;;;;;;;;;4934093;29;20198;-78
2022/01/26 19:51:43;;;;;;;31.13;17.40;;;;;;;;;;4951336;29;20302;-79
2022/01/26 19:54:09;;;;;;;26.00;16.00;;;;;;;;;;4952656;28;20197;-78
2022/01/26 19:56:35;;;;;;;24.23;15.03;;;;;;;;;;4954133;28;20177;-78
2022/01/26 19:59:02;;;;;;;31.10;17.57;;;;;;;;;;4953936;28;20188;-77
2022/01/26 20:01:29;;;;;;;35.53;19.87;;;;;;;;;;4954090;28;20228;-78
2022/01/26 20:03:55;;;;;;;37.10;20.80;;;;;;;;;;4953060;28;20247;-78
2022/01/26 20:06:21;;;;;;;33.07;18.43;;;;;;;;;;4954359;28;20704;-76
2022/01/26 20:09:02;;;;;;;31.20;17.20;;;;;;;;;;4952588;29;20284;-78
2022/01/26 20:11:41;;;;;;;29.03;16.33;;;;;;;;;;4955789;28;20783;-77
2022/01/26 20:14:07;;;;;;;30.03;17.07;;;;;;;;;;4952952;28;20208;-77
2022/01/26 20:16:34;;;;;;;27.30;16.10;;;;;;;;;;4955019;28;20173;-77
2022/01/26 20:19:00;;;;;;;28.83;16.23;;;;;;;;;;4954390;28;20185;-80
2022/01/26 20:21:27;;;;;;;28.93;15.53;;;;;;;;;;4954618;29;20212;-78
2022/01/26 20:23:54;;;;;;;27.60;15.57;;;;;;;;;;4953328;28;20243;-78
2022/01/26 20:26:20;;;;;;;27.07;16.50;;;;;;;;;;4953482;28;20184;-78
2022/01/26 20:28:46;;;;;;;28.70;17.20;;;;;;;;;;4955914;28;20187;-78
2022/01/26 20:31:19;;;;;;;29.27;16.33;;;;;;;;;;4953467;28;20212;-77
2022/01/26 20:33:46;;;;;;;27.23;15.87;;;;;;;;;;4952918;28;20205;-77
2022/01/26 20:36:13;;;;;;;26.77;15.87;;;;;;;;;;4939209;28;20181;-78
2022/01/26 20:38:39;;;;;;;29.73;16.20;;;;;;;;;;4955283;28;20739;-77
2022/01/26 20:41:05;;;;;;;28.00;16.23;;;;;;;;;;4953269;28;20208;-79
2022/01/26 20:43:33;;;;;;;29.73;16.27;;;;;;;;;;4955257;29;20208;-77
2022/01/26 20:46:02;;;;;;;28.23;16.73;;;;;;;;;;4953271;29;20677;-77
2022/01/26 20:48:28;;;;;;;24.87;15.63;;;;;;;;;;4953787;29;20179;-78
2022/01/26 20:50:54;;;;;;;27.03;15.80;;;;;;;;;;4951980;29;20251;-77
2022/01/26 20:53:20;;;;;;;27.67;16.67;;;;;;;;;;4951613;28;20201;-77
2022/01/26 20:55:47;;;;;;;28.10;16.37;;;;;;;;;;4952450;29;20185;-78
2022/01/26 20:58:13;;;;;;;26.90;15.67;;;;;;;;;;4952160;28;20248;-76
2022/01/26 21:00:39;;;;;;;28.10;16.23;;;;;;;;;;4953432;28;20664;-76
2022/01/26 21:03:05;;;;;;;30.73;17.40;;;;;;;;;;4955858;28;20197;-78
2022/01/26 21:05:32;;;;;;;28.57;16.53;;;;;;;;;;4938537;29;20215;-78
2022/01/26 21:07:59;;;;;;;29.57;17.47;;;;;;;;;;4952644;28;20284;-78
2022/01/26 21:10:26;;;;;;;27.07;16.03;;;;;;;;;;4952971;28;20220;-78
2022/01/26 21:12:52;;;;;;;28.87;15.93;;;;;;;;;;4951997;28;20202;-78
2022/01/26 21:15:19;;;;;;;30.37;16.07;;;;;;;;;;4956236;28;20196;-77
2022/01/26 21:17:46;;;;;;;25.63;15.50;;;;;;;;;;4956365;28;20237;-77
2022/01/26 21:20:15;;;;;;;29.70;15.37;;;;;;;;;;4936530;29;20676;-79
2022/01/26 21:22:42;;;;;;;30.70;16.67;;;;;;;;;;4947154;28;20277;-77
2022/01/26 21:25:09;;;;;;;28.07;16.13;;;;;;;;;;4939195;29;20646;-79
2022/01/26 21:27:36;;;;;;;30.30;16.10;;;;;;;;;;4944742;28;20217;-78
2022/01/26 21:30:03;;;;;;;31.40;16.63;;;;;;;;;;4954247;28;20209;-78
2022/01/26 21:32:31;;;;;;;33.07;18.17;;;;;;;;;;4951669;28;20245;-78
2022/01/26 21:34:58;;;;;;;29.97;16.43;;;;;;;;;;4934913;29;20190;-78
2022/01/26 21:37:24;;;;;;;28.07;15.90;;;;;;;;;;4950708;28;20661;-78
2022/01/26 21:39:50;;;;;;;28.43;15.53;;;;;;;;;;4951443;28;20192;-78
2022/01/26 21:42:18;;;;;;;31.97;17.27;;;;;;;;;;4954711;28;20185;-77
2022/01/26 21:44:44;;;;;;;32.07;17.17;;;;;;;;;;4938809;29;20200;-78
2022/01/26 21:47:12;;;;;;;30.77;17.90;;;;;;;;;;4952953;29;20181;-78
2022/01/26 21:49:39;;;;;;;33.37;18.03;;;;;;;;;;4946644;28;20212;-79
2022/01/26 21:52:05;;;;;;;33.20;18.10;;;;;;;;;;4948882;28;20213;-77
2022/01/26 21:54:33;;;;;;;37.33;19.70;;;;;;;;;;4938560;29;20315;-79
2022/01/26 21:56:59;;;;;;;32.90;17.50;;;;;;;;;;4947370;28;22012;-74
2022/01/26 21:59:27;;;;;;;35.30;19.37;;;;;;;;;;4920547;28;20197;-78
2022/01/26 22:01:55;;;;;;;34.60;19.60;;;;;;;;;;4955328;28;20200;-77
2022/01/26 22:04:24;;;;;;;40.37;21.20;;;;;;;;;;4951770;28;20268;-78
2022/01/26 22:06:50;;;;;;;36.27;20.07;;;;;;;;;;4954669;28;20181;-76
2022/01/26 22:09:18;;;;;;;34.23;18.93;;;;;;;;;;4952484;28;20209;-77
2022/01/26 22:11:46;;;;;;;33.97;18.67;;;;;;;;;;4955104;28;20178;-77
2022/01/26 22:14:12;;;;;;;36.00;19.50;;;;;;;;;;4954120;28;20194;-77
2022/01/26 22:16:38;;;;;;;36.50;19.67;;;;;;;;;;4953928;28;20233;-77
2022/01/26 22:19:05;;;;;;;35.73;19.93;;;;;;;;;;4946920;29;20181;-76
2022/01/26 22:21:35;;;;;;;40.37;21.47;;;;;;;;;;4956786;28;20189;-77
2022/01/26 22:24:03;;;;;;;36.23;19.83;;;;;;;;;;4952173;28;20578;-74
2022/01/26 22:26:31;;;;;;;40.27;21.03;;;;;;;;;;4951843;28;20264;-77
2022/01/26 22:28:58;;;;;;;37.97;20.50;;;;;;;;;;4960392;28;20197;-78
2022/01/26 22:31:24;;;;;;;39.10;20.17;;;;;;;;;;4941942;29;20186;-78
2022/01/26 22:33:51;;;;;;;34.37;18.87;;;;;;;;;;4947914;28;20201;-78
2022/01/26 22:36:17;;;;;;;36.73;19.17;;;;;;;;;;4947987;28;20194;-75
2022/01/26 22:38:43;;;;;;;39.00;20.83;;;;;;;;;;4959502;28;20170;-75